Portada
METAR-TAF:

METAR-TAF

Aeropuertos :

Tenerife Sur, España

Aeropuerto de Tenerife Sur

latitud: 28-03N, longitud: 016-34W, altitud: 64 m

Observación

El informe se hizo hace 20 minutos, a las 06:00 UTC
Viento 7 kt del este-noreste, variando entre norte-noreste y este
Temperatura 16°C
Humedad 63%
Presión 1025 hPa
Visibilidad 10 km o más
Nubes dispersas a una altura de 4000 ft

METAR: GCTS 190600Z 06007KT 020V100 9999 SCT040 16/09 Q1025 NOSIG

Hora: 06:20 (06:20 UTC)

Pronóstico

El informe se hizo hace 1 hora y 7 minutos, a las 05:13 UTC
Pronóstico válido del 19 a las 05 UTC al 20 a las 03 UTC
Viento 15 kt del este
Visibilidad 10 km o más
Nubes dispersas a una altura de 3500 ft
Temporalmente
del 19 a las 05 UTC al 19 a las 10 UTC
Viento 5 kt del noreste

TAF: GCTS 190513Z 1905/2003 08015KT 9999 SCT035 TX22/1914Z TN13/1906Z TEMPO 1905/1910 05005KT

Observaciones y pronósticos meteorológicos de más de 4000 aeropuertos (mensajes METAR y TAF).

Los puntos amarillos y rojos representan las estaciones disponibles.

Ponga el ratón en el punto deseado para ver el nombre de la estación.

Haga clic para ver las observaciones y los pronósticos meteorológicos.

Para cambiar el mapa : haga clic en los botones verdes con una cruz de color negro para hacer un zoom, en el botón verde con un guión para alejar o en las flechas verdes para mapas adyacentes.


METAR-TAF: